User Preferences

Timezone
Units
Lat/Lon format
Defaults

Geo and time bounds

242 - BAHIA HONDA KEY, FL   Status:DECOMMISSIONED   Notice:11/15/2018 Station decommissioned
404 records
Date
(UTC)
Hs
(ft)
Tp
(s)
Dp
(deg)
Ta
(s)
SST
(F)
Current sp
(kt)
Current dir
(deg)
2018-07-31 23:30 1.87 5.00 103 3.59 86.4 0.56 253.0
2018-07-31 23:00 1.77 4.55 103 3.42 86.4 0.52 259.0
2018-07-31 22:30 1.80 5.00 101 3.50 86.5 0.52 264.0
2018-07-31 22:00 1.90 4.76 105 3.41 86.5 0.60 261.0
2018-07-31 21:30 2.10 5.00 98 3.46 86.5 0.56 264.0
2018-07-31 21:00 2.00 4.76 93 3.50 86.5 0.62 264.0
2018-07-31 20:30 2.17 5.00 89 3.43 86.7 0.58 271.0
2018-07-31 20:00 2.13 3.70 109 3.43 86.7 0.49 268.0
2018-07-31 19:30 2.13 4.00 116 3.44 86.5 0.49 264.0
2018-07-31 19:00 2.23 4.55 102 3.41 86.5 0.39 274.0
2018-07-31 18:30 2.26 4.35 112 3.39 86.5 0.47 270.0
2018-07-31 18:00 2.40 4.55 102 3.49 86.5 0.49 272.0
2018-07-31 17:30 2.43 3.45 110 3.31 86.5 0.54 277.0
2018-07-31 17:00 2.23 3.23 118 3.24 86.5 0.41 271.0
2018-07-31 16:30 2.30 3.23 115 3.16 86.5 0.54 288.0
2018-07-31 16:00 2.13 3.33 110 3.15 86.4 0.66 286.0
2018-07-31 15:30 2.33 3.85 102 3.16 86.5 0.70 284.0
2018-07-31 15:00 2.23 4.35 102 3.25 86.7 0.74 272.0
2018-07-31 14:30 2.10 4.55 109 3.31 86.9 0.74 265.0
2018-07-31 14:00 2.07 4.55 103 3.37 86.9 0.78 267.0
2018-07-31 13:30 2.10 4.17 109 3.38 86.9 0.78 261.0
2018-07-31 13:00 2.20 4.35 111 3.48 87.1 0.87 260.0
2018-07-31 12:30 2.20 4.35 121 3.35 87.1 0.80 256.0
2018-07-31 12:00 2.10 4.76 118 3.24 86.9 0.80 259.0
2018-07-31 11:30 2.10 4.76 112 3.25 87.1 0.78 257.0
2018-07-31 11:00 2.13 4.76 114 3.35 87.1 0.70 252.0
2018-07-31 10:30 2.30 4.76 117 3.47 87.1 0.60 253.0
2018-07-31 10:00 2.30 5.00 99 3.30 87.1 0.70 264.0
2018-07-31 09:30 2.03 5.00 98 3.27 87.1 0.76 265.0
2018-07-31 09:00 1.94 4.76 101 3.32 87.1 0.72 264.0
2018-07-31 08:30 2.13 4.76 110 3.41 87.1 0.76 263.0
2018-07-31 08:00 2.17 4.76 106 3.50 87.1 0.78 263.0
2018-07-31 07:30 2.33 4.55 106 3.56 87.1 0.80 268.0
2018-07-31 07:00 2.53 4.55 115 3.53 87.1 0.78 269.0
2018-07-31 06:30 2.66 4.35 111 3.46 87.1 0.86 270.0
2018-07-31 06:00 2.53 4.17 112 3.34 87.1 0.87 265.0
2018-07-31 05:30 2.49 3.85 116 3.22 87.1 0.80 269.0
2018-07-31 05:00 2.43 3.45 120 2.97 87.3 0.97 276.0
2018-07-31 04:30 2.07 2.78 112 2.68 87.3 0.91 275.0
2018-07-31 04:00 1.48 2.44 91 2.62 87.4 0.78 275.0
2018-07-31 03:30 1.44 4.00 99 2.74 87.4 0.72 275.0
2018-07-31 03:00 1.51 2.38 86 2.66 87.4 0.76 278.0
2018-07-31 02:30 1.41 4.17 100 2.74 87.4 0.68 277.0
2018-07-31 02:00 1.35 4.35 96 3.02 87.3 0.66 276.0
2018-07-31 01:30 1.25 4.55 84 3.42 87.3 0.64 267.0
2018-07-31 01:00 1.25 3.85 119 3.45 87.3 0.60 265.0
2018-07-31 00:30 1.21 4.17 105 3.43 87.3 0.47 265.0
2018-07-31 00:00 1.18 4.17 104 3.40 87.4 0.60 263.0
2018-07-30 23:30 1.28 3.85 117 3.39 87.4 0.56 259.0
2018-07-30 23:00 1.35 4.55 75 3.28 87.6 0.45 257.0
2018-07-30 22:30 1.35 3.70 114 3.35 87.8 0.45 256.0
2018-07-30 22:00 1.38 4.17 87 3.25 87.8 0.41 254.0
2018-07-30 21:30 1.38 4.35 79 3.21 87.8 0.43 255.0
2018-07-30 21:00 1.41 4.17 94 3.14 87.8 0.31 244.0
2018-07-30 20:30 1.41 3.85 111 3.14 87.8 0.33 252.0
2018-07-30 20:00 1.41 4.17 86 3.20 87.8 0.33 245.0
2018-07-30 19:30 1.44 4.17 89 3.16 87.8 0.29 263.0
2018-07-30 19:00 1.51 4.00 92 3.19 87.8 0.31 276.0
2018-07-30 18:30 1.48 4.17 89 3.19 87.8 0.29 280.0
2018-07-30 18:00 1.48 4.00 95 3.09 87.6 0.35 290.0
2018-07-30 17:30 1.41 3.45 120 3.05 87.6 0.29 301.0
2018-07-30 17:00 1.41 3.03 131 3.04 87.6 0.29 298.0
2018-07-30 16:30 1.44 3.33 129 3.03 87.4 0.31 304.0
2018-07-30 16:00 1.44 2.78 142 2.91 87.3 0.31 306.0
2018-07-30 15:30 1.38 2.94 151 2.83 87.3 0.35 306.0
2018-07-30 15:00 1.35 2.94 140 2.84 87.1 0.33 298.0
2018-07-30 14:30 1.41 2.86 161 2.88 87.1 0.31 299.0
2018-07-30 14:00 1.44 2.70 164 2.80 86.7 0.35 275.0
2018-07-30 13:30 1.41 2.78 147 2.74 86.7 0.35 276.0
2018-07-30 13:00 1.35 2.78 149 2.65 86.9 0.39 284.0
2018-07-30 12:30 1.35 2.86 138 2.74 86.9 0.41 287.0
2018-07-30 12:00 1.35 2.70 150 2.69 86.9 0.51 281.0
2018-07-30 11:30 1.28 2.63 155 2.67 86.9 0.49 276.0
2018-07-30 11:00 1.21 3.03 129 2.73 86.9 0.51 281.0
2018-07-30 10:30 1.21 3.03 129 2.72 86.9 0.52 270.0
2018-07-30 10:00 1.31 2.63 148 2.80 86.9 0.52 264.0
2018-07-30 09:30 1.28 2.56 150 2.78 86.9 0.54 269.0
2018-07-30 09:00 1.31 4.00 130 2.81 86.9 0.56 260.0
2018-07-30 08:30 1.44 2.63 146 2.83 86.9 0.52 262.0
2018-07-30 08:00 1.44 4.17 119 2.84 86.9 0.51 267.0
2018-07-30 07:30 1.28 3.45 151 2.81 86.9 0.58 264.0
2018-07-30 07:00 1.28 3.70 133 2.91 87.1 0.68 264.0
2018-07-30 06:30 1.41 3.85 118 3.00 87.1 0.64 264.0
2018-07-30 06:00 1.38 3.70 99 2.97 87.1 0.66 271.0
2018-07-30 05:30 1.64 3.57 145 3.03 87.1 0.68 269.0
2018-07-30 05:00 1.84 3.45 136 2.98 87.1 0.74 271.0
2018-07-30 04:30 1.84 3.57 125 2.98 86.9 0.74 274.0
2018-07-30 04:00 1.54 3.45 181 3.13 87.1 0.76 273.0
2018-07-30 03:30 1.35 3.03 176 2.95 87.1 0.74 275.0
2018-07-30 03:00 1.18 3.03 184 2.93 87.1 0.82 274.0
2018-07-30 02:30 1.18 3.03 182 2.91 87.1 0.74 272.0
2018-07-30 02:00 1.18 2.94 184 2.83 87.3 0.68 270.0
2018-07-30 01:30 1.18 2.86 181 2.83 87.3 0.68 271.0
2018-07-30 01:00 1.18 2.94 171 2.81 87.3 0.62 268.0
2018-07-30 00:30 1.15 2.86 179 2.75 87.1 0.43 255.0
2018-07-30 00:00 1.15 2.56 182 2.70 87.1 0.54 252.0
2018-07-29 23:30 1.12 2.94 162 2.70 87.3 0.54 253.0
2018-07-29 23:00 1.05 2.70 169 2.71 87.3 0.62 247.0
2018-07-29 22:30 1.08 3.23 152 2.83 87.4 0.58 248.0
2018-07-29 22:00 1.02 3.33 142 2.88 87.6 0.58 243.0
2018-07-29 21:30 1.05 3.12 153 3.01 87.8 0.54 239.0
2018-07-29 21:00 1.05 3.12 161 2.95 87.8 0.54 233.0
2018-07-29 20:30 1.05 3.33 158 2.98 87.8 0.45 235.0
2018-07-29 20:00 1.12 3.33 158 3.02 87.8 0.31 224.0
2018-07-29 19:30 1.18 3.23 161 3.09 87.6 0.35 203.0
2018-07-29 19:00 1.25 3.33 156 3.09 87.8 0.27 208.0
2018-07-29 18:30 1.25 3.45 148 3.14 87.8 0.16 219.0
2018-07-29 18:00 1.35 3.57 159 3.15 87.6 0.16 234.0
2018-07-29 17:30 1.31 3.33 150 3.16 87.4 0.19 248.0
2018-07-29 17:00 1.31 3.57 151 3.11 87.4 0.19 284.0
2018-07-29 16:30 1.51 3.33 166 3.24 87.1 0.23 267.0
2018-07-29 16:00 1.51 3.23 165 3.15 87.1 0.25 259.0
2018-07-29 15:30 1.61 3.03 181 3.19 87.1 0.25 257.0
2018-07-29 15:00 1.67 3.23 172 3.07 87.1 0.25 268.0
2018-07-29 14:30 1.71 3.45 152 3.09 87.1 0.23 281.0
2018-07-29 14:00 1.67 3.12 169 3.06 86.9 0.31 270.0
2018-07-29 13:30 1.51 2.94 183 2.99 86.9 0.31 275.0
2018-07-29 13:00 1.67 2.94 161 3.03 86.9 0.27 275.0
2018-07-29 12:30 1.54 3.03 159 2.94 86.9 0.33 275.0
2018-07-29 12:00 1.61 4.00 103 3.01 86.9 0.41 280.0
2018-07-29 11:30 1.64 3.85 92 3.04 86.9 0.35 277.0
2018-07-29 11:00 1.64 4.00 77 3.04 86.9 0.29 295.0
2018-07-29 10:30 1.54 3.45 119 2.91 86.9 0.39 293.0
2018-07-29 10:00 1.61 3.57 96 2.96 86.9 0.41 306.0
2018-07-29 09:30 1.57 3.57 111 2.94 86.9 0.51 310.0
2018-07-29 09:00 1.54 3.45 128 2.87 86.9 0.52 299.0
2018-07-29 08:30 1.54 3.23 107 2.78 86.9 0.58 287.0
2018-07-29 08:00 1.44 3.03 120 2.67 86.9 0.64 290.0
2018-07-29 07:30 1.38 3.03 117 2.63 86.7 0.68 286.0
2018-07-29 07:00 1.44 3.03 134 2.68 86.9 0.68 280.0
2018-07-29 06:30 1.41 2.70 135 2.59 86.9 0.78 278.0
2018-07-29 06:00 1.38 2.38 126 2.43 86.7 0.86 271.0
2018-07-29 05:30 1.21 2.13 117 2.28 86.9 0.84 267.0
2018-07-29 05:00 1.05 1.96 110 2.15 87.1 0.80 267.0
2018-07-29 04:30 0.79 1.82 91 2.26 87.1 0.87 268.0
2018-07-29 04:00 0.66 3.85 112 2.58 87.1 0.80 271.0
2018-07-29 03:30 0.59 4.00 108 2.68 87.1 0.70 263.0
2018-07-29 03:00 0.59 1.72 51 2.71 87.1 0.87 261.0
2018-07-29 02:30 0.66 1.85 56 2.49 87.1 0.93 257.0
2018-07-29 02:00 0.75 1.89 60 2.52 87.1 0.86 258.0
2018-07-29 01:30 0.72 1.82 63 2.63 87.1 0.84 257.0
2018-07-29 01:00 0.75 4.00 113 2.74 87.1 0.78 261.0
2018-07-29 00:30 0.79 4.55 136 2.86 87.3 0.60 261.0
2018-07-29 00:00 1.02 4.55 205 2.90 87.3 0.68 243.0
2018-07-28 23:30 0.98 4.76 243 2.86 87.3 0.74 231.0
2018-07-28 23:00 1.12 2.17 66 2.54 87.4 0.70 230.0
2018-07-28 22:30 1.44 2.27 66 2.40 88.0 0.62 224.0
2018-07-28 22:00 1.08 4.55 235 2.80 88.3 0.49 212.0
2018-07-28 21:30 0.95 3.70 113 2.91 88.9 0.51 199.0
2018-07-28 21:00 0.92 4.00 120 3.16 89.2 0.49 191.0
2018-07-28 20:30 0.95 4.35 121 3.27 88.7 0.45 186.0
2018-07-28 20:00 1.05 4.17 121 3.12 88.7 0.35 195.0
2018-07-28 19:30 1.15 4.00 116 3.03 88.0 0.33 183.0
2018-07-28 19:00 1.25 4.55 116 3.10 88.7 0.25 187.0
2018-07-28 18:30 1.05 4.55 122 3.42 90.5 0.17 217.0
2018-07-28 18:00 1.08 4.17 117 3.53 91.0 0.17 246.0
2018-07-28 17:30 1.15 4.35 111 3.63 89.6 0.19 255.0
2018-07-28 17:00 1.21 4.17 115 3.63 88.9 0.17 253.0
2018-07-28 16:30 1.28 4.17 117 3.49 87.8 0.29 255.0
2018-07-28 16:00 1.28 4.17 119 3.52 87.4 0.25 255.0
2018-07-28 15:30 1.38 4.17 125 3.47 87.1 0.25 266.0
2018-07-28 15:00 1.48 4.17 124 3.54 87.1 0.27 277.0
2018-07-28 14:30 1.54 4.35 124 3.59 86.9 0.35 277.0
2018-07-28 14:00 1.54 4.17 127 3.44 86.7 0.39 270.0
2018-07-28 13:30 1.71 4.35 125 3.28 86.7 0.37 284.0
2018-07-28 13:00 1.74 4.17 128 3.30 86.7 0.39 283.0
2018-07-28 12:30 1.48 4.35 118 3.57 86.9 0.43 293.0
2018-07-28 12:00 1.38 4.35 111 3.49 86.9 0.43 289.0
2018-07-28 11:30 1.44 4.55 110 3.44 86.9 0.41 297.0
2018-07-28 11:00 1.44 4.55 106 3.35 86.7 0.51 303.0
2018-07-28 10:30 1.38 4.00 109 3.18 86.9 0.39 302.0
2018-07-28 10:00 1.54 4.55 96 3.22 86.9 0.49 303.0
2018-07-28 09:30 1.54 4.00 103 3.04 86.9 0.56 289.0
2018-07-28 09:00 1.51 2.78 102 2.91 86.9 0.54 288.0
2018-07-28 08:30 1.57 4.35 96 2.90 86.7 0.58 289.0
2018-07-28 08:00 1.54 2.70 105 2.85 86.7 0.66 282.0
2018-07-28 07:30 1.54 2.63 97 2.74 86.7 0.70 282.0
2018-07-28 07:00 1.51 4.17 102 2.77 86.9 0.72 282.0
2018-07-28 06:30 1.48 2.78 98 2.75 86.9 0.62 265.0
2018-07-28 06:00 1.51 3.85 111 2.79 86.9 0.68 263.0
2018-07-28 05:30 1.41 3.85 115 2.81 86.9 0.70 265.0
2018-07-28 05:00 1.44 4.17 111 2.86 86.9 0.66 263.0
2018-07-28 04:30 1.41 3.85 114 2.87 86.9 0.62 262.0
2018-07-28 04:00 1.38 4.17 122 2.89 87.1 0.54 253.0
2018-07-28 03:30 1.35 4.35 116 2.79 87.1 0.60 255.0
2018-07-28 03:00 1.25 4.55 115 2.79 86.9 0.64 249.0
2018-07-28 02:30 1.15 4.00 119 2.93 86.9 0.62 264.0
2018-07-28 02:00 1.08 4.55 127 2.95 87.1 0.64 261.0
2018-07-28 01:30 1.05 4.17 115 3.00 86.9 0.56 270.0
2018-07-28 01:00 1.05 4.35 116 2.97 86.9 0.47 267.0
2018-07-28 00:30 1.08 4.00 115 3.09 86.9 0.41 291.0
2018-07-28 00:00 1.05 4.00 105 3.28 87.3 0.37 286.0
2018-07-27 23:30 1.12 4.55 109 3.42 87.4 0.31 288.0
2018-07-27 23:00 1.05 4.17 121 3.32 87.6 0.27 287.0
2018-07-27 22:30 1.12 4.35 118 3.43 87.3 0.17 260.0
2018-07-27 22:00 1.18 4.35 116 3.62 87.4 0.12 270.0
2018-07-27 21:30 1.08 4.35 122 3.75 87.6 0.14 267.0
2018-07-27 21:00 1.21 4.35 122 3.83 87.4 0.06 254.0
2018-07-27 20:30 1.18 4.35 129 3.70 87.4 0.08 252.0
2018-07-27 20:00 1.28 4.55 124 3.84 87.4 0.08 270.0
2018-07-27 19:30 1.35 4.55 120 3.79 87.4 0.04 221.0
2018-07-27 19:00 1.31 4.35 123 3.81 87.4 0.06 243.0
2018-07-27 18:30 1.35 4.17 130 3.77 87.3 0.04 184.0
2018-07-27 18:00 1.41 4.17 125 3.84 87.1 0.04 297.0
2018-07-27 17:30 1.38 4.17 123 3.90 86.7 0.10 194.0
2018-07-27 17:00 1.35 4.17 126 3.83 86.5 0.06 206.0
2018-07-27 16:30 1.44 4.35 131 3.64 86.4 0.10 340.0
2018-07-27 16:00 1.51 4.35 126 3.52 86.4 0.23 352.0
2018-07-27 15:30 1.64 4.00 130 3.38 86.7 0.17 345.0
2018-07-27 15:00 1.51 4.35 118 3.53 86.7 0.14 37.0
2018-07-27 14:30 1.44 4.00 120 3.69 86.5 0.23 12.0
2018-07-27 14:00 1.31 3.85 121 3.66 86.7 0.27 14.0
2018-07-27 13:30 1.38 4.00 120 3.64 86.7 0.33 5.0
2018-07-27 13:00 1.28 3.85 122 3.47 87.1 0.39 357.0
2018-07-27 12:30 1.18 3.70 132 3.17 87.1 0.52 355.0
2018-07-27 12:00 1.28 3.70 125 2.95 87.1 0.74 356.0
2018-07-27 11:30 1.02 4.00 109 3.39 87.3 0.54 351.0
2018-07-27 11:00 1.21 3.85 117 2.91 87.1 0.56 338.0
2018-07-27 10:30 1.02 3.70 118 3.33 87.1 0.43 330.0
2018-07-27 10:00 0.98 3.33 103 3.27 87.1 0.64 308.0
2018-07-27 09:30 1.08 3.33 104 3.11 87.3 0.43 303.0
2018-07-27 09:00 1.05 3.45 103 3.27 87.4 0.37 309.0
2018-07-27 08:30 1.05 3.03 106 3.13 87.6 0.45 304.0
2018-07-27 08:00 1.02 3.03 106 3.03 87.8 0.31 281.0
2018-07-27 07:30 1.02 2.86 110 2.95 87.8 0.37 297.0
2018-07-27 07:00 0.92 6.25 229 3.02 87.8 0.33 285.0
2018-07-27 06:30 0.85 5.88 224 3.02 87.8 0.31 292.0
2018-07-27 06:00 0.89 6.25 234 3.16 87.8 0.35 293.0
2018-07-27 05:30 0.89 5.88 226 3.31 87.4 0.31 292.0
2018-07-27 05:00 0.85 6.25 228 3.53 88.0 0.25 301.0
2018-07-27 04:30 0.85 6.25 229 3.93 88.5 0.29 304.0
2018-07-27 04:00 0.75 6.67 235 3.90 88.2 0.16 322.0
2018-07-27 03:30 0.79 6.25 230 4.15 88.2 0.06 274.0
2018-07-27 03:00 0.69 5.88 234 4.47 88.5 0.04 205.0
2018-07-27 02:30 0.69 6.67 231 4.48 88.3 0.08 358.0
2018-07-27 02:00 0.72 6.67 240 4.42 88.5 0.10 30.0
2018-07-27 01:30 0.69 6.67 241 3.98 88.9 0.10 50.0
2018-07-27 01:00 0.69 5.00 239 3.96 89.1 0.19 33.0
2018-07-27 00:30 0.72 7.14 244 4.23 89.2 0.27 39.0
2018-07-27 00:00 0.72 6.25 241 4.20 89.4 0.35 49.0
2018-07-26 23:30 0.75 5.88 236 4.11 89.8 0.51 40.0
2018-07-26 23:00 0.79 5.88 232 3.94 89.8 0.56 38.0
2018-07-26 22:30 0.72 6.25 231 3.99 90.3 0.62 32.0
2018-07-26 22:00 0.75 6.25 234 3.96 89.6 0.58 51.0
2018-07-26 21:30 0.72 6.25 236 3.76 89.8 0.74 42.0
2018-07-26 21:00 0.79 5.88 236 3.85 90.0 0.80 40.0
2018-07-26 20:30 0.85 6.25 233 3.94 90.7 0.80 52.0
2018-07-26 20:00 0.79 6.25 228 3.91 90.0 0.82 50.0
2018-07-26 19:30 0.82 6.25 236 4.03 89.8 0.86 54.0
2018-07-26 19:00 0.82 6.25 225 3.92 89.4 0.86 57.0
2018-07-26 18:30 0.79 7.14 235 3.86 89.6 0.93 55.0
2018-07-26 18:00 0.85 5.88 232 3.90 89.2 0.95 59.0
2018-07-26 17:30 0.82 5.56 238 3.79 89.1 0.97 47.0
2018-07-26 17:00 0.85 5.88 224 3.81 89.4 1.05 41.0
2018-07-26 16:30 0.85 6.25 231 3.97 88.9 1.07 41.0
2018-07-26 16:00 0.95 5.56 228 4.01 88.9 0.93 47.0
2018-07-26 15:30 0.92 5.00 221 3.82 88.5 0.87 49.0
2018-07-26 15:00 0.98 5.88 229 3.84 88.9 0.91 49.0
2018-07-26 14:30 0.92 5.88 230 3.96 88.2 0.91 48.0
2018-07-26 14:00 0.89 6.25 235 4.06 87.8 0.87 40.0
2018-07-26 13:30 0.92 6.67 245 4.24 87.4 0.95 39.0
2018-07-26 13:00 0.95 5.88 232 4.27 87.3 0.99 36.0
2018-07-26 12:30 0.92 5.56 237 4.35 87.1 0.95 37.0
2018-07-26 12:00 0.92 6.67 234 4.13 87.1 0.97 34.0
2018-07-26 11:30 0.95 6.25 236 4.28 87.1 0.95 31.0
2018-07-26 11:00 0.95 6.25 233 4.22 87.1 1.01 29.0
2018-07-26 10:30 0.92 5.56 231 4.26 87.1 0.76 30.0
2018-07-26 10:00 1.05 6.25 233 4.63 87.1 0.97 35.0
2018-07-26 09:30 0.98 6.25 197 4.36 87.1 0.95 35.0
2018-07-26 09:00 0.89 5.88 235 4.23 87.1 1.01 30.0
2018-07-26 08:30 1.02 5.88 196 4.50 87.4 0.82 40.0
2018-07-26 08:00 1.05 5.88 235 4.39 87.4 0.74 29.0
2018-07-26 07:30 1.05 6.67 239 4.35 87.4 0.54 32.0
2018-07-26 07:00 0.95 6.67 239 4.58 87.6 0.45 29.0
2018-07-26 06:30 1.02 6.67 241 4.81 87.6 0.39 29.0
2018-07-26 06:00 0.95 6.67 230 4.67 87.6 0.35 21.0
2018-07-26 05:30 0.95 7.14 236 4.65 87.8 0.33 21.0
2018-07-26 05:00 0.98 6.25 230 4.51 87.8 0.29 2.0
2018-07-26 04:30 1.05 6.25 234 4.45 87.8 0.16 24.0
2018-07-26 04:00 1.02 6.25 230 4.26 87.8 0.17 13.0
2018-07-26 03:30 1.02 6.25 239 4.18 87.8 0.10 34.0
2018-07-26 03:00 0.98 6.67 235 4.16 87.8 0.14 80.0
2018-07-26 02:30 1.05 6.25 232 4.07 87.8 0.12 76.0
2018-07-26 02:00 1.08 6.67 232 3.98 88.0 0.17 92.0
2018-07-26 01:30 1.08 6.25 234 3.89 88.0 0.21 102.0
2018-07-26 01:00 1.05 5.00 231 3.65 88.0 0.31 86.0
2018-07-26 00:30 1.08 5.88 233 3.69 88.2 0.37 95.0
2018-07-26 00:00 1.08 5.26 227 3.60 88.2 0.41 97.0
2018-07-25 23:30 1.12 3.45 198 3.56 88.2 0.64 95.0
2018-07-25 23:00 1.15 6.25 222 3.62 88.2 0.76 85.0
2018-07-25 22:30 1.08 6.25 227 3.57 88.2 0.84 83.0
2018-07-25 22:00 1.05 6.67 229 3.59 88.0 0.93 80.0
2018-07-25 21:30 1.08 5.88 232 3.65 88.0 1.07 77.0
2018-07-25 21:00 1.05 6.25 229 3.71 88.0 1.22 76.0
2018-07-25 20:30 1.02 4.76 199 3.73 88.0 1.32 73.0
2018-07-25 20:00 0.98 5.88 229 3.76 88.0 1.40 73.0
2018-07-25 19:30 0.95 5.88 237 3.72 88.3 1.69 71.0
2018-07-25 19:00 0.85 6.67 231 3.67 88.5 1.92 67.0
2018-07-25 18:30 0.92 3.57 135 3.54 88.2 1.96 64.0
2018-07-25 18:00 0.85 4.76 222 3.51 88.3 1.94 58.0
2018-07-25 17:30 0.92 3.57 155 3.45 88.3 1.90 58.0
2018-07-25 17:00 0.95 4.76 215 3.48 88.2 1.89 54.0
2018-07-25 16:30 0.95 3.57 161 3.45 88.0 1.83 55.0
2018-07-25 16:00 1.02 4.55 201 3.54 87.6 1.79 52.0
2018-07-25 15:30 0.89 6.25 237 3.48 87.4 1.59 51.0
2018-07-25 15:00 0.95 6.67 225 3.58 87.3 1.59 49.0
2018-07-25 14:30 0.98 3.85 177 3.42 87.1 1.38 53.0
2018-07-25 14:00 1.28 5.26 235 3.48 87.1 0.68 51.0
2018-07-25 13:30 1.38 5.00 226 3.39 87.1 0.68 48.0
2018-07-25 13:00 1.48 5.26 230 3.35 87.1 0.66 56.0
2018-07-25 12:30 1.61 5.56 232 3.22 87.1 0.58 57.0
2018-07-25 12:00 1.57 5.88 224 3.21 87.1 0.64 54.0
2018-07-25 11:30 1.61 2.44 191 3.22 87.1 0.60 53.0
2018-07-25 11:00 1.64 5.26 230 3.20 86.9 0.62 54.0
2018-07-25 10:30 1.57 5.88 236 3.21 86.9 0.51 61.0
2018-07-25 10:00 1.51 2.44 173 3.12 86.9 0.66 47.0
2018-07-25 09:30 1.61 5.56 229 3.24 86.9 0.62 59.0
2018-07-25 09:00 1.57 5.88 233 3.27 86.9 0.62 55.0
2018-07-25 08:30 1.61 5.88 231 3.31 86.9 0.72 51.0
2018-07-25 08:00 1.51 6.25 230 3.41 86.9 0.68 54.0
2018-07-25 07:30 1.44 5.56 228 3.66 86.9 0.64 47.0
2018-07-25 07:00 1.48 6.25 232 3.92 86.9 0.66 51.0
2018-07-25 06:30 1.48 6.67 231 3.92 87.1 0.60 51.0
2018-07-25 06:00 1.48 6.25 230 4.36 87.1 0.68 64.0
2018-07-25 05:30 1.48 6.25 232 4.27 87.1 0.58 67.0
2018-07-25 05:00 1.41 6.25 236 4.43 87.1 0.62 69.0
2018-07-25 04:30 1.38 6.67 231 4.33 87.1 0.62 64.0
2018-07-25 04:00 1.51 7.14 233 4.38 87.1 0.66 74.0
2018-07-25 03:30 1.51 6.67 232 4.42 87.1 0.62 73.0
2018-07-25 03:00 1.51 6.67 236 4.26 87.1 0.62 79.0
2018-07-25 02:30 1.57 6.67 235 4.35 87.1 0.70 79.0
2018-07-25 02:00 1.51 6.67 235 4.37 87.1 0.70 78.0
2018-07-25 01:30 1.57 6.25 230 4.23 87.3 0.74 78.0
2018-07-25 01:00 1.61 6.67 235 4.18 87.3 0.68 76.0
2018-07-25 00:30 1.77 6.67 236 4.18 87.3 0.84 75.0
2018-07-25 00:00 1.77 7.14 234 4.12 87.3 0.84 76.0
2018-07-24 23:30 1.90 6.67 235 4.03 87.3 0.86 73.0
2018-07-24 23:00 1.87 6.67 236 3.89 87.3 0.84 75.0
2018-07-24 22:30 1.97 6.67 239 3.83 87.3 0.93 72.0
2018-07-24 22:00 2.03 5.88 235 3.66 87.4 0.95 75.0
2018-07-24 21:30 2.10 5.88 232 3.77 87.4 0.95 73.0
2018-07-24 21:00 2.17 3.85 232 3.52 87.3 1.11 71.0
2018-07-24 20:30 2.17 5.56 230 3.46 87.3 1.19 68.0
2018-07-24 20:00 2.20 6.25 233 3.61 87.4 1.24 70.0
2018-07-24 19:30 2.36 5.88 233 3.68 87.3 1.28 73.0
2018-07-24 19:00 2.26 5.88 228 3.53 87.3 1.13 71.0
2018-07-24 18:30 2.33 4.17 238 3.48 87.3 1.24 65.0
2018-07-24 18:00 2.33 4.35 230 3.37 87.3 1.17 67.0
2018-07-24 17:30 2.40 4.55 230 3.46 87.3 1.13 68.0
2018-07-24 17:00 2.43 4.00 227 3.44 87.3 1.17 64.0
2018-07-24 16:30 2.62 6.25 232 3.60 87.3 1.15 63.0
2018-07-24 16:00 2.59 5.56 230 3.65 87.1 1.03 68.0
2018-07-24 15:30 2.66 6.25 232 3.56 87.1 0.95 71.0
2018-07-24 15:00 2.76 5.56 227 3.69 87.1 0.87 66.0
2018-07-24 14:30 3.02 6.25 225 3.82 87.1 0.86 61.0
2018-07-24 14:00 2.92 6.67 224 3.80 86.9 0.80 66.0
2018-07-24 13:30 2.85 5.00 232 3.74 86.9 0.72 59.0
2018-07-24 13:00 2.76 5.56 231 3.72 86.9 0.76 61.0
2018-07-24 12:30 2.76 5.00 231 3.63 86.9 0.70 59.0
2018-07-24 12:00 2.79 4.35 239 3.58 86.9 0.70 64.0
2018-07-24 11:30 2.59 4.17 232 3.52 86.9 0.64 63.0
2018-07-24 11:00 2.62 4.00 240 3.46 86.9 0.74 59.0
2018-07-24 10:30 2.43 3.85 230 3.51 86.9 0.58 59.0
2018-07-24 10:00 2.40 4.55 236 3.49 86.9 0.60 60.0
2018-07-24 09:30 2.30 4.76 229 3.42 86.9 0.56 61.0
2018-07-24 09:00 2.20 5.00 233 3.53 86.9 0.62 63.0
2018-07-24 08:30 2.26 5.56 232 3.59 87.1 0.70 72.0
2018-07-24 08:00 2.36 4.55 233 3.59 87.1 0.64 80.0
2018-07-24 07:30 2.46 5.56 235 3.67 86.9 0.54 74.0
2018-07-24 07:00 2.49 5.26 234 3.69 87.1 0.58 78.0
2018-07-24 06:30 2.49 5.00 234 3.75 87.1 0.62 74.0
2018-07-24 06:00 2.53 4.55 235 3.76 87.1 0.68 74.0
2018-07-24 05:30 2.69 5.56 233 3.77 86.9 0.60 78.0
2018-07-24 05:00 2.66 5.56 237 3.89 87.1 0.56 75.0
2018-07-24 04:30 2.59 4.76 241 3.92 87.1 0.60 80.0
2018-07-24 04:00 2.66 5.00 237 4.03 87.1 0.60 75.0
2018-07-24 03:30 2.82 5.26 236 4.00 87.1 0.60 82.0
2018-07-24 03:00 2.59 5.26 237 3.85 87.1 0.56 84.0
2018-07-24 02:30 2.59 5.00 238 3.79 87.1 0.62 69.0
2018-07-24 02:00 2.59 4.55 239 3.71 87.1 0.76 76.0
2018-07-24 01:30 2.49 5.26 236 3.89 87.1 0.66 71.0
2018-07-24 01:00 2.46 4.55 239 3.95 87.1 0.78 77.0
2018-07-24 00:30 2.53 4.76 241 3.79 87.1 0.82 71.0
2018-07-24 00:00 2.62 4.55 243 3.73 87.1 0.82 75.0
2018-07-23 23:30 2.72 4.55 245 3.71 87.1 0.86 76.0
2018-07-23 23:00 2.92 4.17 244 3.71 87.1 0.93 75.0
2018-07-23 22:30 2.92 4.55 240 3.58 87.3 0.93 69.0
2018-07-23 22:00 2.79 4.35 245 3.41 87.3 0.99 68.0
2018-07-23 21:30 2.99 4.17 241 3.41 87.3 1.09 67.0
2018-07-23 21:00 2.99 4.00 238 3.39 87.1 1.17 64.0
2018-07-23 20:30 3.15 3.70 236 3.26 87.3 1.21 73.0
2018-07-23 20:00 2.72 3.85 234 3.22 87.3 1.19 70.0
2018-07-23 19:30 2.69 3.85 227 3.20 87.3 1.17 68.0
2018-07-23 19:00 2.59 3.57 236 3.12 87.3 1.13 67.0
2018-07-23 18:30 2.36 3.70 242 3.08 87.3 1.15 65.0
2018-07-23 18:00 2.36 3.70 219 3.10 87.3 1.11 62.0
2018-07-23 17:30 2.33 3.12 207 3.11 87.3 1.11 62.0
2018-07-23 17:00 2.17 3.70 190 3.14 87.1 1.07 65.0
2018-07-23 16:30 1.97 4.76 196 3.32 87.1 0.95 67.0
2018-07-23 16:00 1.97 3.85 204 3.22 86.9 0.89 58.0
2018-07-23 15:30 2.17 3.85 215 3.07 86.9 0.91 62.0
2018-07-23 15:00 2.43 3.12 231 3.07 86.7 0.93 73.0
2018-07-23 14:30 2.20 4.55 226 3.03 86.9 0.56 65.0
2018-07-23 14:00 1.94 4.55 233 3.16 86.7 0.51 66.0